Time;durP1;ratioP1;P1;durP2;ratioP2;P2;SDS_P1;SDS_P2;PMS_P1;PMS_P2;Temp;Humidity;BMP_temperature;BMP_pressure;BME280_temperature;BME280_humidity;BME280_pressure;Samples;Min_cycle;Max_cycle;Signal;HPM_P1;HPM_P2
2023/03/03 00:01:25;;;;;;;28.70;17.93;;;;;;;;;;5050222;28;20273;-74
2023/03/03 00:03:52;;;;;;;29.27;18.50;;;;;;;;;;5046770;28;20359;-74
2023/03/03 00:06:19;;;;;;;33.00;19.33;;;;;;;;;;5049205;28;20227;-74
2023/03/03 00:08:45;;;;;;;31.83;18.87;;;;;;;;;;5054449;28;20615;-74
2023/03/03 00:11:11;;;;;;;33.90;18.20;;;;;;;;;;5045329;28;20212;-74
2023/03/03 00:13:45;;;;;;;26.63;16.07;;;;;;;;;;5048879;28;20205;-74
2023/03/03 00:16:31;;;;;;;46.37;24.13;;;;;;;;;;5049382;28;20176;-74
2023/03/03 00:18:58;;;;;;;30.30;18.60;;;;;;;;;;5043708;28;20196;-74
2023/03/03 00:21:28;;;;;;;27.93;17.70;;;;;;;;;;5043366;28;20271;-75
2023/03/03 00:23:55;;;;;;;27.80;18.45;;;;;;;;;;5042869;28;20431;-74
2023/03/03 00:26:35;;;;;;;28.43;17.27;;;;;;;;;;5045234;28;20556;-74
2023/03/03 00:29:02;;;;;;;25.67;16.40;;;;;;;;;;5046102;28;20178;-75
2023/03/03 00:31:30;;;;;;;25.70;16.67;;;;;;;;;;5051025;28;20207;-74
2023/03/03 00:34:00;;;;;;;27.97;15.97;;;;;;;;;;5046192;28;20194;-74
2023/03/03 00:36:36;;;;;;;26.50;15.73;;;;;;;;;;5047556;28;20641;-73
2023/03/03 00:39:12;;;;;;;27.37;16.57;;;;;;;;;;5029902;28;20181;-74
2023/03/03 00:41:39;;;;;;;25.93;16.07;;;;;;;;;;5048262;28;20280;-74
2023/03/03 00:44:25;;;;;;;30.60;17.47;;;;;;;;;;5027688;28;20182;-74
2023/03/03 00:46:53;;;;;;;25.67;15.43;;;;;;;;;;5039875;28;20192;-74
2023/03/03 00:49:28;;;;;;;29.83;16.57;;;;;;;;;;5038355;28;20175;-74
2023/03/03 00:51:54;;;;;;;29.00;15.93;;;;;;;;;;5050488;28;20224;-75
2023/03/03 00:54:20;;;;;;;27.30;16.07;;;;;;;;;;5032660;28;20675;-73
2023/03/03 00:56:46;;;;;;;28.00;16.63;;;;;;;;;;5043597;28;20268;-74
2023/03/03 00:59:12;;;;;;;29.47;16.50;;;;;;;;;;5030443;28;20527;-73
2023/03/03 01:01:39;;;;;;;29.50;16.20;;;;;;;;;;5049658;28;20201;-74
2023/03/03 01:04:05;;;;;;;31.43;17.33;;;;;;;;;;5045521;28;20193;-74
2023/03/03 01:06:31;;;;;;;28.00;15.70;;;;;;;;;;5034428;28;20182;-74
2023/03/03 01:08:58;;;;;;;25.30;15.43;;;;;;;;;;5027866;28;20193;-74
2023/03/03 01:11:27;;;;;;;29.07;16.17;;;;;;;;;;5048577;28;20558;-73
2023/03/03 01:13:54;;;;;;;27.70;17.37;;;;;;;;;;5049248;28;20285;-74
2023/03/03 01:16:21;;;;;;;28.47;17.67;;;;;;;;;;5041469;28;20721;-74
2023/03/03 01:18:47;;;;;;;25.00;16.03;;;;;;;;;;5038580;28;20243;-74
2023/03/03 01:21:13;;;;;;;26.80;15.47;;;;;;;;;;5049678;28;20201;-73
2023/03/03 01:23:40;;;;;;;34.07;19.27;;;;;;;;;;5031508;28;20632;-74
2023/03/03 01:26:06;;;;;;;32.23;18.37;;;;;;;;;;5025589;28;20523;-74
2023/03/03 01:28:33;;;;;;;27.90;17.60;;;;;;;;;;5048421;28;20197;-74
2023/03/03 01:31:00;;;;;;;26.17;16.17;;;;;;;;;;5046061;28;20701;-74
2023/03/03 01:33:26;;;;;;;27.63;16.63;;;;;;;;;;5047856;28;20673;-74
2023/03/03 01:35:52;;;;;;;25.43;16.53;;;;;;;;;;5059498;28;20255;-73
2023/03/03 01:38:19;;;;;;;26.93;16.03;;;;;;;;;;5048214;28;20904;-74
2023/03/03 01:40:51;;;;;;;22.47;14.93;;;;;;;;;;5043203;28;20835;-74
2023/03/03 01:43:18;;;;;;;30.33;16.30;;;;;;;;;;5060832;28;20240;-75
2023/03/03 01:45:47;;;;;;;26.27;15.10;;;;;;;;;;5043357;28;20194;-74
2023/03/03 01:48:15;;;;;;;26.53;15.17;;;;;;;;;;5034903;28;20198;-74
2023/03/03 01:50:45;;;;;;;30.57;17.50;;;;;;;;;;5043194;28;20204;-73
2023/03/03 01:53:13;;;;;;;28.40;16.83;;;;;;;;;;5040517;28;20201;-74
2023/03/03 01:55:41;;;;;;;24.13;15.47;;;;;;;;;;5044745;28;20247;-74
2023/03/03 01:58:09;;;;;;;24.37;14.80;;;;;;;;;;5050922;28;20182;-75
2023/03/03 02:00:37;;;;;;;64.23;20.57;;;;;;;;;;5044622;28;20265;-74
2023/03/03 02:03:04;;;;;;;58.00;19.93;;;;;;;;;;5046950;28;20641;-74
2023/03/03 02:05:30;;;;;;;61.50;21.37;;;;;;;;;;5042952;28;20256;-74
2023/03/03 02:07:57;;;;;;;36.90;18.00;;;;;;;;;;5061452;28;20196;-75
2023/03/03 02:10:23;;;;;;;35.77;18.30;;;;;;;;;;5030270;28;20207;-74
2023/03/03 02:12:51;;;;;;;27.40;16.50;;;;;;;;;;5045701;28;20704;-74
2023/03/03 02:15:24;;;;;;;25.20;15.80;;;;;;;;;;5040245;28;20217;-74
2023/03/03 02:17:53;;;;;;;23.13;15.20;;;;;;;;;;5044498;28;20174;-75
2023/03/03 02:20:38;;;;;;;25.90;16.40;;;;;;;;;;5046674;28;20181;-74
2023/03/03 02:23:12;;;;;;;28.43;16.03;;;;;;;;;;5046781;28;20210;-73
2023/03/03 02:25:51;;;;;;;22.67;14.27;;;;;;;;;;5012974;28;20685;-74
2023/03/03 02:28:18;;;;;;;25.87;15.83;;;;;;;;;;5029883;28;20200;-74
2023/03/03 02:30:44;;;;;;;27.43;15.83;;;;;;;;;;5051942;28;20197;-74
2023/03/03 02:33:10;;;;;;;26.30;16.30;;;;;;;;;;5053761;28;20269;-74
2023/03/03 02:35:38;;;;;;;30.53;16.63;;;;;;;;;;5051679;28;20194;-74
2023/03/03 02:38:24;;;;;;;25.30;15.67;;;;;;;;;;5050651;28;20186;-74
2023/03/03 02:40:54;;;;;;;25.57;14.80;;;;;;;;;;5043479;28;20277;-74
2023/03/03 02:43:22;;;;;;;25.70;15.10;;;;;;;;;;5043780;28;20190;-74
2023/03/03 02:45:48;;;;;;;23.63;14.43;;;;;;;;;;5066417;28;20198;-74
2023/03/03 02:48:14;;;;;;;29.33;17.67;;;;;;;;;;5051544;28;20189;-74
2023/03/03 02:50:40;;;;;;;26.33;16.93;;;;;;;;;;5050153;28;20193;-74
2023/03/03 02:53:06;;;;;;;26.63;15.33;;;;;;;;;;5051499;28;20205;-74
2023/03/03 02:55:33;;;;;;;28.77;16.27;;;;;;;;;;5047491;28;20348;-75
2023/03/03 02:57:59;;;;;;;26.33;16.27;;;;;;;;;;5046118;28;20205;-75
2023/03/03 03:00:25;;;;;;;26.23;15.43;;;;;;;;;;5027675;28;20173;-74
2023/03/03 03:02:52;;;;;;;26.40;16.17;;;;;;;;;;5028872;28;20210;-75
2023/03/03 03:05:18;;;;;;;24.50;15.73;;;;;;;;;;5048088;28;20186;-75
2023/03/03 03:07:44;;;;;;;29.93;17.50;;;;;;;;;;5048540;28;20197;-75
2023/03/03 03:10:11;;;;;;;24.77;15.30;;;;;;;;;;5049699;28;20240;-74
2023/03/03 03:12:39;;;;;;;20.40;12.97;;;;;;;;;;5048673;28;20220;-74
2023/03/03 03:15:08;;;;;;;22.70;12.97;;;;;;;;;;5048831;28;20186;-74
2023/03/03 03:17:36;;;;;;;20.60;13.23;;;;;;;;;;5026735;28;20654;-74
2023/03/03 03:20:02;;;;;;;22.37;14.63;;;;;;;;;;5064527;28;20638;-74
2023/03/03 03:22:30;;;;;;;24.43;14.67;;;;;;;;;;5048047;28;20586;-74
2023/03/03 03:24:56;;;;;;;22.43;13.73;;;;;;;;;;5033916;28;20182;-73
2023/03/03 03:27:22;;;;;;;20.30;12.93;;;;;;;;;;5046111;28;20778;-74
2023/03/03 03:29:49;;;;;;;21.50;13.60;;;;;;;;;;5046565;28;20193;-74
2023/03/03 03:32:17;;;;;;;25.73;15.27;;;;;;;;;;5051074;28;20474;-74
2023/03/03 03:34:43;;;;;;;26.47;15.47;;;;;;;;;;5044144;28;20610;-74
2023/03/03 03:37:10;;;;;;;27.50;15.27;;;;;;;;;;5030948;28;20185;-73
2023/03/03 03:39:38;;;;;;;22.57;15.10;;;;;;;;;;5048645;28;20689;-74
2023/03/03 03:42:04;;;;;;;21.60;13.60;;;;;;;;;;5047733;28;20689;-74
2023/03/03 03:44:30;;;;;;;24.03;14.30;;;;;;;;;;5048261;28;20192;-74
2023/03/03 03:46:56;;;;;;;21.53;12.50;;;;;;;;;;5052732;28;20536;-74
2023/03/03 03:49:22;;;;;;;23.37;13.97;;;;;;;;;;5040114;28;20174;-74
2023/03/03 03:51:50;;;;;;;24.43;14.57;;;;;;;;;;5030486;28;20819;-74
2023/03/03 03:54:19;;;;;;;25.20;14.90;;;;;;;;;;5026842;28;20241;-73
2023/03/03 03:56:45;;;;;;;26.47;15.03;;;;;;;;;;5039369;28;20209;-74
2023/03/03 03:59:12;;;;;;;22.23;13.87;;;;;;;;;;5047174;28;20182;-74
2023/03/03 04:01:38;;;;;;;23.40;14.73;;;;;;;;;;5046447;28;20228;-74
2023/03/03 04:04:04;;;;;;;25.00;15.70;;;;;;;;;;5032353;28;20232;-74
2023/03/03 04:06:31;;;;;;;23.53;14.50;;;;;;;;;;5011377;28;20185;-74
2023/03/03 04:08:57;;;;;;;25.60;13.73;;;;;;;;;;5047445;28;20214;-73
2023/03/03 04:11:25;;;;;;;22.50;14.27;;;;;;;;;;5047453;28;20237;-73
2023/03/03 04:13:51;;;;;;;19.65;14.35;;;;;;;;;;5030900;28;20554;-73
2023/03/03 04:16:17;;;;;;;22.07;14.90;;;;;;;;;;5036357;28;20645;-73
2023/03/03 04:18:44;;;;;;;23.25;15.32;;;;;;;;;;5046977;28;20427;-73
2023/03/03 04:21:14;;;;;;;22.90;14.97;;;;;;;;;;5045293;28;20209;-74
2023/03/03 04:23:40;;;;;;;25.13;15.40;;;;;;;;;;5047248;28;20182;-74
2023/03/03 04:26:07;;;;;;;24.77;16.17;;;;;;;;;;5047768;28;20660;-74
2023/03/03 04:28:34;;;;;;;21.80;14.90;;;;;;;;;;5044555;28;20669;-73
2023/03/03 04:31:00;;;;;;;25.83;15.33;;;;;;;;;;5030679;28;20212;-73
2023/03/03 04:33:28;;;;;;;20.33;13.20;;;;;;;;;;5046318;28;20205;-74
2023/03/03 04:35:54;;;;;;;22.33;13.80;;;;;;;;;;5030901;28;20297;-74
2023/03/03 04:38:21;;;;;;;20.90;12.87;;;;;;;;;;5047772;28;20210;-74
2023/03/03 04:40:48;;;;;;;20.50;13.43;;;;;;;;;;5043760;28;20259;-74
2023/03/03 04:43:15;;;;;;;22.17;13.87;;;;;;;;;;5047311;28;20196;-73
2023/03/03 04:45:42;;;;;;;21.93;13.43;;;;;;;;;;5030373;28;20304;-74
2023/03/03 04:48:09;;;;;;;22.50;13.37;;;;;;;;;;5042585;28;20197;-74
2023/03/03 04:50:36;;;;;;;22.23;13.90;;;;;;;;;;5029226;28;20512;-74
2023/03/03 04:53:03;;;;;;;21.90;13.50;;;;;;;;;;5045077;28;20210;-73
2023/03/03 04:55:29;;;;;;;19.93;12.97;;;;;;;;;;5025743;28;20190;-73
2023/03/03 04:57:55;;;;;;;17.60;11.90;;;;;;;;;;5046828;28;20212;-73
2023/03/03 05:00:22;;;;;;;20.75;13.98;;;;;;;;;;5028781;28;20431;-73
2023/03/03 05:02:49;;;;;;;20.03;12.60;;;;;;;;;;5042431;28;20197;-73
2023/03/03 05:05:15;;;;;;;20.60;13.13;;;;;;;;;;5044867;28;20196;-74
2023/03/03 05:07:41;;;;;;;21.63;12.53;;;;;;;;;;5045603;28;20588;-74
2023/03/03 05:10:08;;;;;;;19.63;13.07;;;;;;;;;;5045122;28;20189;-73
2023/03/03 05:12:34;;;;;;;22.83;13.00;;;;;;;;;;5043096;28;20217;-74
2023/03/03 05:15:00;;;;;;;20.50;12.60;;;;;;;;;;5047557;28;20658;-73
2023/03/03 05:17:26;;;;;;;17.43;11.63;;;;;;;;;;5030267;28;20792;-74
2023/03/03 05:19:53;;;;;;;17.23;11.93;;;;;;;;;;5045054;28;20185;-73
2023/03/03 05:22:19;;;;;;;19.70;12.53;;;;;;;;;;5048371;28;20515;-73
2023/03/03 05:24:47;;;;;;;24.27;13.60;;;;;;;;;;5050801;28;20182;-74
2023/03/03 05:27:14;;;;;;;21.77;13.27;;;;;;;;;;5046708;28;20911;-73
2023/03/03 05:29:40;;;;;;;22.10;12.87;;;;;;;;;;5046570;28;20240;-74
2023/03/03 05:32:06;;;;;;;21.37;12.40;;;;;;;;;;5042534;28;20194;-73
2023/03/03 05:34:33;;;;;;;22.20;13.03;;;;;;;;;;5047364;28;20189;-74
2023/03/03 05:36:59;;;;;;;22.08;14.98;;;;;;;;;;5046384;28;20416;-73
2023/03/03 05:39:25;;;;;;;21.50;13.90;;;;;;;;;;5047104;28;20178;-74
2023/03/03 05:41:51;;;;;;;19.73;12.90;;;;;;;;;;5049500;28;20267;-73
2023/03/03 05:44:18;;;;;;;20.85;13.63;;;;;;;;;;5051785;28;20429;-74
2023/03/03 05:46:44;;;;;;;20.17;13.20;;;;;;;;;;5030380;28;20182;-74
2023/03/03 05:49:10;;;;;;;22.27;14.07;;;;;;;;;;5050168;28;20243;-74
2023/03/03 05:51:37;;;;;;;22.50;12.57;;;;;;;;;;5056619;28;20271;-74
2023/03/03 05:54:03;;;;;;;24.43;13.70;;;;;;;;;;5044790;28;20209;-73
2023/03/03 05:56:29;;;;;;;19.50;12.33;;;;;;;;;;5047023;28;20599;-73
2023/03/03 05:58:55;;;;;;;22.00;13.60;;;;;;;;;;5050307;28;20225;-73
2023/03/03 06:01:21;;;;;;;21.57;13.27;;;;;;;;;;5044662;28;20198;-73
2023/03/03 06:03:47;;;;;;;19.93;12.50;;;;;;;;;;5049265;28;20185;-73
2023/03/03 06:06:15;;;;;;;23.23;13.47;;;;;;;;;;5051299;28;20192;-75
2023/03/03 06:08:42;;;;;;;22.57;13.53;;;;;;;;;;5049010;28;20185;-73
2023/03/03 06:11:08;;;;;;;23.37;14.47;;;;;;;;;;5050000;28;20185;-74
2023/03/03 06:13:34;;;;;;;22.23;14.27;;;;;;;;;;5052759;28;21020;-73
2023/03/03 06:16:00;;;;;;;23.03;13.37;;;;;;;;;;5032336;28;20273;-73
2023/03/03 06:18:26;;;;;;;20.40;13.53;;;;;;;;;;5047249;28;20189;-74
2023/03/03 06:20:53;;;;;;;20.20;12.40;;;;;;;;;;5048957;28;20185;-75
2023/03/03 06:23:20;;;;;;;23.17;14.03;;;;;;;;;;5049509;28;20174;-74
2023/03/03 06:25:46;;;;;;;22.33;13.63;;;;;;;;;;5032514;28;20519;-73
2023/03/03 06:28:13;;;;;;;24.53;13.23;;;;;;;;;;5033314;28;20830;-74
2023/03/03 06:30:40;;;;;;;20.60;12.50;;;;;;;;;;5033467;28;20495;-73
2023/03/03 06:33:06;;;;;;;24.23;15.07;;;;;;;;;;5032140;28;20467;-74
2023/03/03 06:35:32;;;;;;;22.80;14.13;;;;;;;;;;5049407;28;20170;-75
2023/03/03 06:37:58;;;;;;;24.23;14.77;;;;;;;;;;5046639;28;20253;-72
2023/03/03 06:40:24;;;;;;;25.20;14.33;;;;;;;;;;5047554;28;20276;-78
2023/03/03 06:42:50;;;;;;;22.50;14.37;;;;;;;;;;5030739;28;20468;-77
2023/03/03 06:45:17;;;;;;;25.70;16.50;;;;;;;;;;5030248;28;20232;-76
2023/03/03 06:47:43;;;;;;;32.07;20.27;;;;;;;;;;5048689;28;20759;-75
2023/03/03 06:50:10;;;;;;;31.13;18.30;;;;;;;;;;5051206;28;20186;-78
2023/03/03 06:52:36;;;;;;;28.13;16.43;;;;;;;;;;5016181;28;20305;-83
2023/03/03 06:55:10;;;;;;;29.33;16.43;;;;;;;;;;5035266;28;20527;-80
2023/03/03 06:57:36;;;;;;;28.90;16.53;;;;;;;;;;5048998;28;20175;-79
2023/03/03 07:00:14;;;;;;;28.53;16.97;;;;;;;;;;5053086;28;20959;-83
2023/03/03 07:02:40;;;;;;;26.30;14.83;;;;;;;;;;5019114;28;20323;-79
2023/03/03 07:05:16;;;;;;;24.30;14.60;;;;;;;;;;5034413;28;20414;-79
2023/03/03 07:07:42;;;;;;;24.87;15.13;;;;;;;;;;5046416;28;20435;-77
2023/03/03 07:10:16;;;;;;;26.90;16.23;;;;;;;;;;5050598;28;20691;-77
2023/03/03 07:12:42;;;;;;;24.50;14.73;;;;;;;;;;5049466;28;20591;-77
2023/03/03 07:15:08;;;;;;;26.73;16.67;;;;;;;;;;5032491;28;20740;-77
2023/03/03 07:17:35;;;;;;;24.40;15.80;;;;;;;;;;5030277;28;20251;-77
2023/03/03 07:20:01;;;;;;;23.63;15.63;;;;;;;;;;5049307;28;20182;-77
2023/03/03 07:22:29;;;;;;;29.03;15.43;;;;;;;;;;5047415;28;20339;-77
2023/03/03 07:25:00;;;;;;;23.97;15.40;;;;;;;;;;5051340;28;20227;-77
2023/03/03 07:27:27;;;;;;;27.60;16.23;;;;;;;;;;5044412;28;20186;-77
2023/03/03 07:29:55;;;;;;;27.17;16.57;;;;;;;;;;5031498;28;20186;-77
2023/03/03 07:32:26;;;;;;;26.57;15.67;;;;;;;;;;5015466;28;20209;-77
2023/03/03 07:34:54;;;;;;;25.23;15.20;;;;;;;;;;5053601;28;20247;-77
2023/03/03 07:37:20;;;;;;;25.13;15.80;;;;;;;;;;5049122;28;20186;-77
2023/03/03 07:39:47;;;;;;;30.43;17.07;;;;;;;;;;5051649;28;20273;-77
2023/03/03 07:42:13;;;;;;;24.07;15.20;;;;;;;;;;5053958;28;20270;-77
2023/03/03 07:44:39;;;;;;;26.60;16.30;;;;;;;;;;5052289;28;20218;-77
2023/03/03 07:47:14;;;;;;;30.07;17.70;;;;;;;;;;5037989;28;20186;-77
2023/03/03 07:49:42;;;;;;;27.83;16.93;;;;;;;;;;5050045;28;20189;-77
2023/03/03 07:52:20;;;;;;;26.73;17.03;;;;;;;;;;5042515;28;20224;-78
2023/03/03 07:54:46;;;;;;;26.07;17.07;;;;;;;;;;5049689;28;20182;-78
2023/03/03 07:57:31;;;;;;;26.63;16.33;;;;;;;;;;5034340;28;20190;-78
2023/03/03 08:00:08;;;;;;;26.07;16.20;;;;;;;;;;5051633;28;20637;-78
2023/03/03 08:02:40;;;;;;;24.70;16.73;;;;;;;;;;5050417;28;20727;-77
2023/03/03 08:05:19;;;;;;;27.43;17.03;;;;;;;;;;5047216;28;20193;-77
2023/03/03 08:07:45;;;;;;;27.27;17.73;;;;;;;;;;5054005;28;20664;-78
2023/03/03 08:10:47;;;;;;;25.70;17.73;;;;;;;;;;5038520;28;20221;-77
2023/03/03 08:13:18;;;;;;;24.83;16.90;;;;;;;;;;4996971;28;20233;-77
2023/03/03 08:15:45;;;;;;;29.10;17.17;;;;;;;;;;5041888;28;20320;-77
2023/03/03 08:18:21;;;;;;;24.97;15.97;;;;;;;;;;5050475;28;20633;-77
2023/03/03 08:20:48;;;;;;;25.23;16.30;;;;;;;;;;5048934;28;20228;-78
2023/03/03 08:23:15;;;;;;;28.13;16.80;;;;;;;;;;5044863;28;20271;-78
2023/03/03 08:25:42;;;;;;;26.67;17.47;;;;;;;;;;5045347;28;20221;-78
2023/03/03 08:28:09;;;;;;;29.60;17.30;;;;;;;;;;5047999;28;20185;-78
2023/03/03 08:30:35;;;;;;;24.43;16.80;;;;;;;;;;5046505;28;20692;-77
2023/03/03 08:33:01;;;;;;;27.83;17.67;;;;;;;;;;5040889;28;20205;-78
2023/03/03 08:35:28;;;;;;;28.73;18.47;;;;;;;;;;5045931;28;20252;-79
2023/03/03 08:37:54;;;;;;;30.50;19.33;;;;;;;;;;5046019;28;20549;-78
2023/03/03 08:40:20;;;;;;;27.80;18.27;;;;;;;;;;5030048;28;20185;-78
2023/03/03 08:42:47;;;;;;;29.47;19.77;;;;;;;;;;5045327;28;20225;-78
2023/03/03 08:45:13;;;;;;;32.63;20.97;;;;;;;;;;5048389;28;20220;-78
2023/03/03 08:47:40;;;;;;;32.77;20.63;;;;;;;;;;5047119;28;20209;-78
2023/03/03 08:50:07;;;;;;;31.50;20.43;;;;;;;;;;5048920;28;20189;-78
2023/03/03 08:52:34;;;;;;;33.13;20.77;;;;;;;;;;5047224;28;20251;-77
2023/03/03 08:55:00;;;;;;;32.13;21.20;;;;;;;;;;5051655;28;20242;-78
2023/03/03 08:57:27;;;;;;;32.33;21.47;;;;;;;;;;5048130;28;20174;-77
2023/03/03 08:59:53;;;;;;;32.80;21.83;;;;;;;;;;5052641;28;20228;-77
2023/03/03 09:02:19;;;;;;;31.70;21.97;;;;;;;;;;5045526;28;20210;-77
2023/03/03 09:04:45;;;;;;;33.73;21.57;;;;;;;;;;5032786;28;20186;-77
2023/03/03 09:07:11;;;;;;;38.90;23.23;;;;;;;;;;5047740;28;20213;-78
2023/03/03 09:09:38;;;;;;;35.87;22.57;;;;;;;;;;5051640;28;20232;-78
2023/03/03 09:12:23;;;;;;;36.00;22.57;;;;;;;;;;5043713;28;20197;-78
2023/03/03 09:14:50;;;;;;;37.70;23.53;;;;;;;;;;5047108;28;20182;-77
2023/03/03 09:17:24;;;;;;;35.47;24.30;;;;;;;;;;5046544;28;20197;-78
2023/03/03 09:19:51;;;;;;;33.83;23.40;;;;;;;;;;5046686;28;20186;-78
2023/03/03 09:22:22;;;;;;;37.70;23.70;;;;;;;;;;5045037;28;20209;-78
2023/03/03 09:24:51;;;;;;;36.87;24.30;;;;;;;;;;5045126;28;20197;-78
2023/03/03 09:27:28;;;;;;;41.33;26.00;;;;;;;;;;5049947;28;20331;-78
2023/03/03 09:29:54;;;;;;;39.70;25.40;;;;;;;;;;5032424;28;20284;-77
2023/03/03 09:32:28;;;;;;;40.30;25.90;;;;;;;;;;5031041;28;20206;-78
2023/03/03 09:34:55;;;;;;;42.30;26.20;;;;;;;;;;5048061;28;20702;-78
2023/03/03 09:37:28;;;;;;;40.47;25.30;;;;;;;;;;5049756;28;20162;-78
2023/03/03 09:39:55;;;;;;;42.07;26.93;;;;;;;;;;5050521;28;20188;-79
2023/03/03 09:42:21;;;;;;;45.80;28.50;;;;;;;;;;5050626;28;20569;-78
2023/03/03 09:45:07;;;;;;;44.03;26.63;;;;;;;;;;5052186;28;20185;-78
2023/03/03 09:47:44;;;;;;;46.50;29.30;;;;;;;;;;5030237;28;20178;-79
2023/03/03 09:50:16;;;;;;;42.73;27.53;;;;;;;;;;5033411;28;20169;-79
2023/03/03 09:52:45;;;;;;;42.37;25.50;;;;;;;;;;5052399;28;20238;-80
2023/03/03 09:55:36;;;;;;;45.33;28.43;;;;;;;;;;5050294;28;20233;-77
2023/03/03 09:58:07;;;;;;;43.77;28.53;;;;;;;;;;5054010;28;20178;-80
2023/03/03 10:00:43;;;;;;;44.87;30.07;;;;;;;;;;5038388;28;20193;-79
2023/03/03 10:03:21;;;;;;;44.50;27.70;;;;;;;;;;5034389;28;20212;-79
2023/03/03 10:06:08;;;;;;;44.47;27.80;;;;;;;;;;5049049;28;20185;-79
2023/03/03 10:08:48;;;;;;;47.00;28.30;;;;;;;;;;5029807;28;20193;-79
2023/03/03 10:11:15;;;;;;;44.03;27.77;;;;;;;;;;5052486;28;20208;-79
2023/03/03 10:13:41;;;;;;;43.07;27.87;;;;;;;;;;5034181;28;20234;-79
2023/03/03 10:16:26;;;;;;;47.57;28.20;;;;;;;;;;5034306;28;20186;-79
2023/03/03 10:19:00;;;;;;;46.57;29.07;;;;;;;;;;5054965;28;20257;-79
2023/03/03 10:21:36;;;;;;;48.03;30.47;;;;;;;;;;5047031;28;20568;-79
2023/03/03 10:24:22;;;;;;;45.10;29.60;;;;;;;;;;5048622;28;20195;-79
2023/03/03 10:27:00;;;;;;;44.70;28.73;;;;;;;;;;5051481;28;20189;-79
2023/03/03 10:29:32;;;;;;;45.83;29.10;;;;;;;;;;5050354;28;20243;-79
2023/03/03 10:32:05;;;;;;;48.77;30.57;;;;;;;;;;5051619;28;20650;-80
2023/03/03 10:34:50;;;;;;;45.10;29.10;;;;;;;;;;5045636;28;20213;-79
2023/03/03 10:37:35;;;;;;;46.37;29.17;;;;;;;;;;5014701;28;20194;-79
2023/03/03 10:40:17;;;;;;;44.43;29.17;;;;;;;;;;5043496;28;20177;-79
2023/03/03 10:42:57;;;;;;;49.03;30.27;;;;;;;;;;5028583;28;20205;-79
2023/03/03 10:45:23;;;;;;;45.63;27.50;;;;;;;;;;5034161;28;20213;-79
2023/03/03 10:47:59;;;;;;;45.97;28.10;;;;;;;;;;5050831;28;20696;-79
2023/03/03 10:50:44;;;;;;;45.10;28.47;;;;;;;;;;5046920;28;20198;-79
2023/03/03 10:53:29;;;;;;;46.70;28.73;;;;;;;;;;5046485;28;20217;-79
2023/03/03 10:56:04;;;;;;;44.10;26.67;;;;;;;;;;5033209;28;20182;-79
2023/03/03 10:58:49;;;;;;;44.73;28.97;;;;;;;;;;5055138;28;20689;-79
2023/03/03 11:01:34;;;;;;;45.43;28.63;;;;;;;;;;5054837;28;20723;-80
2023/03/03 11:04:03;;;;;;;43.83;28.33;;;;;;;;;;5014552;28;20197;-81
2023/03/03 11:06:30;;;;;;;45.30;28.20;;;;;;;;;;5053792;28;20189;-81
2023/03/03 11:09:15;;;;;;;45.90;29.70;;;;;;;;;;5049469;28;20217;-80
2023/03/03 11:11:45;;;;;;;44.97;28.57;;;;;;;;;;5038967;28;20259;-81
2023/03/03 11:14:21;;;;;;;40.03;26.63;;;;;;;;;;5035046;28;20206;-80
2023/03/03 11:17:04;;;;;;;44.00;28.07;;;;;;;;;;5051838;28;20181;-85
2023/03/03 11:19:54;;;;;;;44.30;28.13;;;;;;;;;;5071024;28;20178;-76
2023/03/03 11:22:33;;;;;;;43.63;26.93;;;;;;;;;;5041907;28;20580;-76
2023/03/03 11:25:06;;;;;;;41.57;27.57;;;;;;;;;;5053297;28;20192;-81
2023/03/03 11:27:32;;;;;;;45.10;29.10;;;;;;;;;;5051108;28;20183;-77
2023/03/03 11:29:58;;;;;;;40.47;26.67;;;;;;;;;;5049192;28;20186;-77
2023/03/03 11:32:30;;;;;;;43.33;26.60;;;;;;;;;;5050386;28;20569;-76
2023/03/03 11:35:26;;;;;;;41.50;26.93;;;;;;;;;;5047491;28;20309;-76
2023/03/03 11:37:52;;;;;;;42.00;26.20;;;;;;;;;;5037141;28;20206;-80
2023/03/03 11:40:26;;;;;;;38.70;26.47;;;;;;;;;;5051248;28;20174;-76
2023/03/03 11:43:11;;;;;;;42.13;25.77;;;;;;;;;;5051357;28;20677;-79
2023/03/03 11:45:40;;;;;;;37.93;25.27;;;;;;;;;;5033924;28;20217;-79
2023/03/03 11:48:21;;;;;;;34.90;24.00;;;;;;;;;;5050262;28;20194;-80
2023/03/03 11:50:55;;;;;;;38.35;27.48;;;;;;;;;;5049088;28;20459;-80
2023/03/03 11:53:28;;;;;;;41.47;26.30;;;;;;;;;;5045811;28;20316;-80
2023/03/03 11:55:57;;;;;;;36.17;24.43;;;;;;;;;;5045465;28;20261;-79
2023/03/03 11:58:40;;;;;;;37.73;25.00;;;;;;;;;;5046182;28;20188;-79
2023/03/03 12:01:25;;;;;;;36.03;24.03;;;;;;;;;;5046371;28;20256;-77
2023/03/03 12:04:00;;;;;;;37.07;24.67;;;;;;;;;;5048070;28;20194;-79
2023/03/03 12:06:33;;;;;;;38.47;25.27;;;;;;;;;;5048964;28;20189;-79
2023/03/03 12:09:18;;;;;;;35.07;23.80;;;;;;;;;;5047103;28;20186;-80
2023/03/03 12:12:02;;;;;;;39.13;25.37;;;;;;;;;;5030589;28;20854;-79
2023/03/03 12:14:37;;;;;;;36.10;23.40;;;;;;;;;;5050475;28;20213;-81
2023/03/03 12:17:05;;;;;;;35.57;23.87;;;;;;;;;;5048695;28;20656;-80
2023/03/03 12:19:58;;;;;;;36.37;24.17;;;;;;;;;;5048574;28;21102;-81
2023/03/03 12:22:33;;;;;;;37.20;25.27;;;;;;;;;;5035851;28;20228;-81
2023/03/03 12:25:14;;;;;;;34.43;23.90;;;;;;;;;;5050965;28;20279;-78
2023/03/03 12:27:50;;;;;;;35.77;24.67;;;;;;;;;;5044159;28;20653;-78
2023/03/03 12:30:34;;;;;;;35.60;24.33;;;;;;;;;;5046181;28;20216;-77
2023/03/03 12:33:04;;;;;;;32.67;23.63;;;;;;;;;;5044459;28;20312;-78
2023/03/03 12:35:30;;;;;;;35.67;25.50;;;;;;;;;;5046962;28;20182;-79
2023/03/03 12:38:22;;;;;;;32.50;23.67;;;;;;;;;;5048669;28;20259;-78
2023/03/03 12:40:56;;;;;;;31.90;23.97;;;;;;;;;;5046138;28;20182;-79
2023/03/03 12:43:25;;;;;;;35.70;25.83;;;;;;;;;;5047976;28;20204;-77
2023/03/03 12:46:03;;;;;;;33.77;23.90;;;;;;;;;;5049660;28;20185;-78
2023/03/03 12:48:40;;;;;;;31.43;22.53;;;;;;;;;;5048316;28;20555;-78
2023/03/03 12:51:06;;;;;;;29.13;22.47;;;;;;;;;;5048347;28;21343;-78
2023/03/03 12:53:47;;;;;;;30.87;22.33;;;;;;;;;;5049534;28;20233;-78
2023/03/03 12:56:14;;;;;;;32.20;22.33;;;;;;;;;;5044005;28;20181;-80
2023/03/03 12:59:01;;;;;;;32.37;23.73;;;;;;;;;;5050702;28;20186;-85
2023/03/03 13:01:33;;;;;;;29.80;22.33;;;;;;;;;;5048178;28;20200;-82
2023/03/03 13:04:17;;;;;;;30.03;22.17;;;;;;;;;;5030478;28;20185;-84
2023/03/03 13:06:59;;;;;;;28.20;22.70;;;;;;;;;;5049301;28;20552;-84
2023/03/03 13:09:38;;;;;;;28.77;20.87;;;;;;;;;;5052350;28;20185;-83
2023/03/03 13:12:22;;;;;;;30.80;22.20;;;;;;;;;;5050945;28;20288;-83
2023/03/03 13:14:54;;;;;;;28.87;22.43;;;;;;;;;;5050030;28;20183;-78
2023/03/03 13:17:29;;;;;;;29.83;22.77;;;;;;;;;;5048490;28;20182;-79
2023/03/03 13:19:59;;;;;;;29.13;22.70;;;;;;;;;;5046348;28;20653;-80
2023/03/03 13:22:41;;;;;;;27.47;21.13;;;;;;;;;;5046897;28;20201;-80
2023/03/03 13:25:29;;;;;;;27.63;20.87;;;;;;;;;;5047680;28;20189;-79
2023/03/03 13:27:59;;;;;;;26.97;21.43;;;;;;;;;;5045941;28;20193;-79
2023/03/03 13:30:27;;;;;;;28.63;22.67;;;;;;;;;;5048075;28;20289;-81
2023/03/03 13:32:56;;;;;;;29.03;21.53;;;;;;;;;;5047140;28;20271;-79
2023/03/03 13:35:26;;;;;;;29.27;21.60;;;;;;;;;;5049254;28;20261;-79
2023/03/03 13:37:53;;;;;;;27.27;21.63;;;;;;;;;;5047517;28;20595;-83
2023/03/03 13:40:22;;;;;;;27.53;21.67;;;;;;;;;;5041645;28;20235;-83
2023/03/03 13:42:54;;;;;;;25.20;21.33;;;;;;;;;;5022150;28;20216;-83
2023/03/03 13:45:30;;;;;;;26.47;20.77;;;;;;;;;;5044593;28;20201;-82
2023/03/03 13:48:16;;;;;;;24.93;20.30;;;;;;;;;;5048427;28;20452;-83
2023/03/03 13:50:47;;;;;;;27.07;20.73;;;;;;;;;;5021321;28;20259;-82
2023/03/03 13:53:13;;;;;;;26.13;20.63;;;;;;;;;;5028164;28;20264;-83
2023/03/03 13:55:52;;;;;;;24.20;20.03;;;;;;;;;;5048809;28;20241;-83
2023/03/03 13:58:25;;;;;;;23.57;18.60;;;;;;;;;;5044725;28;20189;-83
2023/03/03 14:01:01;;;;;;;24.50;19.27;;;;;;;;;;5041266;28;20190;-83
2023/03/03 14:03:47;;;;;;;24.07;18.97;;;;;;;;;;5051933;28;20177;-83
2023/03/03 14:06:21;;;;;;;27.47;21.30;;;;;;;;;;5052100;28;20201;-82
2023/03/03 14:08:47;;;;;;;27.60;20.00;;;;;;;;;;5048679;28;20219;-82
2023/03/03 14:11:30;;;;;;;24.50;19.83;;;;;;;;;;5032534;28;20308;-83
2023/03/03 14:13:56;;;;;;;24.00;18.80;;;;;;;;;;5045829;28;20209;-82
2023/03/03 14:16:31;;;;;;;21.80;18.40;;;;;;;;;;5049717;28;20277;-83
2023/03/03 14:19:00;;;;;;;25.07;19.73;;;;;;;;;;5032177;28;20185;-82
2023/03/03 14:21:29;;;;;;;25.73;19.23;;;;;;;;;;5048461;28;20208;-82
2023/03/03 14:24:07;;;;;;;22.03;17.70;;;;;;;;;;5052023;28;20178;-82
2023/03/03 14:26:45;;;;;;;20.63;16.97;;;;;;;;;;5050439;28;20695;-82
2023/03/03 14:29:26;;;;;;;22.57;17.97;;;;;;;;;;5052452;28;20254;-83
2023/03/03 14:31:53;;;;;;;24.93;19.13;;;;;;;;;;5054972;28;20210;-82
2023/03/03 14:34:19;;;;;;;23.37;17.97;;;;;;;;;;5053690;28;20284;-81
2023/03/03 14:36:46;;;;;;;22.17;18.30;;;;;;;;;;5054094;28;20652;-83